world map with POO marked

POO - Airport

This information may not be accurate or current and is not valid for navigation or flight planning. No warranty of fitness for any purpose is made or implied.

flag of Minas Geraisflag of Brazil

Donate via PayPal

Additional information is available on the NEW Great Circle Mapper

Location
City:  Poços de Caldas, Minas Gerais, Brazil
Name:Embaixador Walther Moreira Salles
ICAO / IATA:SBPC / POO

Details
Type:Airport (Aerodrome, Airfield)
Latitude:21°50'35"S (-21.843013)
Longitude:46°34'04"W (-46.567916)
Datum:WGS 1984
Elevation:4135 ft (1260 m)
Runways:1
Longest:4101 × 98 ft (1250 × 30 m)

Time
Timezone:UTC+31:08 (DST+34:08)
Local Time:

Weather
METAR:SBPC  041400Z 36002KT 9999 FEW015 BKN080 27/18 Q1020

Related Locations
Nearby:
Farthest:MMD: 12125 mi / 19514 km
Minamidaito [Minami Daito Airport], Minamidaito Jima, 47, JP

Find:

   beyond  
but within

Other Information
Maps:
Sources:

  


 


Great Circle Mapper   Great Circle Mapper
Great Circle Mapper FAQ   Great Circle Mapper FAQ
  Karl's Home Page
KLS²   KLS² Home
   GC on Facebook
Airlines of the World   Airlines of the World
Donate via PayPal


Copyright © 2004-2020, Karl L. Swartz. All rights reserved.
All trademarks mentioned herein belong to their respective owners.

Please see credits for attribution and copyright information.

Karl Swartz <karl@kls2.com>
  Powered by FreeBSD
Valid HTML 4.01!
Labeled with ICRA
hCard Microformat
Geo Microformat